sensor_id;sensor_type;location;lat;lon;timestamp;pressure;altitude;pressure_sealevel;temperature;humidity
74181;BME280;62544;50.826;14.354;2023-02-19T00:02:41;99107.04;;;9.52;85.42
74181;BME280;62544;50.826;14.354;2023-02-19T00:06:57;99105.80;;;9.51;85.96
74181;BME280;62544;50.826;14.354;2023-02-19T00:11:14;99103.03;;;9.41;86.07
74181;BME280;62544;50.826;14.354;2023-02-19T00:15:32;99101.03;;;9.30;85.75
74181;BME280;62544;50.826;14.354;2023-02-19T00:19:45;99097.83;;;9.21;85.66
74181;BME280;62544;50.826;14.354;2023-02-19T00:24:02;99093.75;;;9.18;84.75
74181;BME280;62544;50.826;14.354;2023-02-19T00:28:17;99087.74;;;9.11;84.13
74181;BME280;62544;50.826;14.354;2023-02-19T00:32:33;99082.18;;;9.11;84.81
74181;BME280;62544;50.826;14.354;2023-02-19T00:36:49;99077.69;;;9.09;83.12
74181;BME280;62544;50.826;14.354;2023-02-19T00:41:05;99075.86;;;9.05;84.24
74181;BME280;62544;50.826;14.354;2023-02-19T00:45:21;99074.57;;;9.08;83.72
74181;BME280;62544;50.826;14.354;2023-02-19T00:49:37;99073.71;;;9.12;81.48
74181;BME280;62544;50.826;14.354;2023-02-19T00:53:53;99071.06;;;9.16;81.69
74181;BME280;62544;50.826;14.354;2023-02-19T00:58:09;99067.58;;;9.20;80.96
74181;BME280;62544;50.826;14.354;2023-02-19T01:02:25;99064.23;;;9.26;80.75
74181;BME280;62544;50.826;14.354;2023-02-19T01:06:41;99060.69;;;9.25;81.55
74181;BME280;62544;50.826;14.354;2023-02-19T01:10:57;99055.29;;;9.30;80.32
74181;BME280;62544;50.826;14.354;2023-02-19T01:15:13;99050.34;;;9.36;79.84
74181;BME280;62544;50.826;14.354;2023-02-19T01:19:29;99045.87;;;9.43;78.78
74181;BME280;62544;50.826;14.354;2023-02-19T01:23:45;99039.92;;;9.43;79.32
74181;BME280;62544;50.826;14.354;2023-02-19T01:28:01;99033.91;;;9.45;78.57
74181;BME280;62544;50.826;14.354;2023-02-19T01:32:17;99029.65;;;9.45;78.05
74181;BME280;62544;50.826;14.354;2023-02-19T01:36:33;99024.30;;;9.54;77.28
74181;BME280;62544;50.826;14.354;2023-02-19T01:40:55;99015.77;;;9.61;77.74
74181;BME280;62544;50.826;14.354;2023-02-19T01:49:30;99004.83;;;9.57;79.67
74181;BME280;62544;50.826;14.354;2023-02-19T01:53:38;99001.45;;;9.49;80.88
74181;BME280;62544;50.826;14.354;2023-02-19T01:57:53;98999.34;;;9.40;82.10
74181;BME280;62544;50.826;14.354;2023-02-19T02:02:09;98996.44;;;9.39;81.87
74181;BME280;62544;50.826;14.354;2023-02-19T02:06:34;98994.90;;;9.35;83.61
74181;BME280;62544;50.826;14.354;2023-02-19T02:10:41;98992.58;;;9.31;85.01
74181;BME280;62544;50.826;14.354;2023-02-19T02:14:57;98987.19;;;9.32;85.38
74181;BME280;62544;50.826;14.354;2023-02-19T02:27:50;98964.92;;;9.26;87.74
74181;BME280;62544;50.826;14.354;2023-02-19T02:32:09;98956.84;;;9.25;87.37
74181;BME280;62544;50.826;14.354;2023-02-19T02:36:17;98948.25;;;9.19;88.61
74181;BME280;62544;50.826;14.354;2023-02-19T02:40:33;98941.09;;;9.09;90.03
74181;BME280;62544;50.826;14.354;2023-02-19T02:44:49;98935.79;;;9.02;90.66
74181;BME280;62544;50.826;14.354;2023-02-19T02:49:16;98930.78;;;9.01;89.21
74181;BME280;62544;50.826;14.354;2023-02-19T02:53:35;98924.69;;;8.99;89.19
74181;BME280;62544;50.826;14.354;2023-02-19T02:57:37;98917.85;;;8.97;89.04
74181;BME280;62544;50.826;14.354;2023-02-19T03:06:09;98909.99;;;8.93;89.66
74181;BME280;62544;50.826;14.354;2023-02-19T03:10:27;98906.27;;;8.93;89.31
74181;BME280;62544;50.826;14.354;2023-02-19T03:14:42;98903.44;;;8.92;89.68
74181;BME280;62544;50.826;14.354;2023-02-19T03:18:57;98901.53;;;8.93;89.14
74181;BME280;62544;50.826;14.354;2023-02-19T03:23:13;98898.95;;;8.93;88.91
74181;BME280;62544;50.826;14.354;2023-02-19T03:27:29;98894.61;;;8.91;89.42
74181;BME280;62544;50.826;14.354;2023-02-19T03:31:45;98889.04;;;8.89;89.82
74181;BME280;62544;50.826;14.354;2023-02-19T03:36:01;98883.76;;;8.84;90.18
74181;BME280;62544;50.826;14.354;2023-02-19T03:40:17;98879.92;;;8.78;90.93
74181;BME280;62544;50.826;14.354;2023-02-19T03:48:53;98876.05;;;8.66;92.55
74181;BME280;62544;50.826;14.354;2023-02-19T03:57:27;98868.40;;;8.64;91.62
74181;BME280;62544;50.826;14.354;2023-02-19T04:01:39;98865.63;;;8.61;92.61
74181;BME280;62544;50.826;14.354;2023-02-19T04:05:54;98863.37;;;8.58;91.93
74181;BME280;62544;50.826;14.354;2023-02-19T04:10:09;98861.16;;;8.57;91.83
74181;BME280;62544;50.826;14.354;2023-02-19T04:18:41;98852.82;;;8.60;91.16
74181;BME280;62544;50.826;14.354;2023-02-19T04:22:57;98847.01;;;8.60;92.30
74181;BME280;62544;50.826;14.354;2023-02-19T04:27:13;98841.55;;;8.57;92.04
74181;BME280;62544;50.826;14.354;2023-02-19T04:31:29;98838.44;;;8.55;91.85
74181;BME280;62544;50.826;14.354;2023-02-19T04:35:45;98835.42;;;8.49;93.69
74181;BME280;62544;50.826;14.354;2023-02-19T04:40:01;98833.14;;;8.43;93.90
74181;BME280;62544;50.826;14.354;2023-02-19T04:44:17;98830.98;;;8.31;94.98
74181;BME280;62544;50.826;14.354;2023-02-19T04:48:33;98828.28;;;8.29;93.69
74181;BME280;62544;50.826;14.354;2023-02-19T04:52:49;98820.81;;;8.31;92.87
74181;BME280;62544;50.826;14.354;2023-02-19T04:57:05;98812.80;;;8.34;92.59
74181;BME280;62544;50.826;14.354;2023-02-19T05:01:21;98807.51;;;8.33;92.84
74181;BME280;62544;50.826;14.354;2023-02-19T05:05:37;98803.43;;;8.31;93.34
74181;BME280;62544;50.826;14.354;2023-02-19T05:09:53;98799.22;;;8.33;92.28
74181;BME280;62544;50.826;14.354;2023-02-19T05:14:09;98796.59;;;8.34;92.64
74181;BME280;62544;50.826;14.354;2023-02-19T05:18:25;98795.37;;;8.36;91.99
74181;BME280;62544;50.826;14.354;2023-02-19T05:22:41;98791.57;;;8.41;91.36
74181;BME280;62544;50.826;14.354;2023-02-19T05:26:57;98785.05;;;8.39;92.16
74181;BME280;62544;50.826;14.354;2023-02-19T05:31:13;98780.22;;;8.32;93.47
74181;BME280;62544;50.826;14.354;2023-02-19T05:35:29;98773.00;;;8.33;92.47
74181;BME280;62544;50.826;14.354;2023-02-19T05:39:45;98766.49;;;8.36;91.71
74181;BME280;62544;50.826;14.354;2023-02-19T05:44:01;98760.88;;;8.39;92.11
74181;BME280;62544;50.826;14.354;2023-02-19T05:48:17;98758.87;;;8.41;91.20
74181;BME280;62544;50.826;14.354;2023-02-19T05:52:33;98756.66;;;8.44;90.90
74181;BME280;62544;50.826;14.354;2023-02-19T05:56:49;98754.30;;;8.45;91.22
74181;BME280;62544;50.826;14.354;2023-02-19T06:01:05;98756.76;;;8.42;92.32
74181;BME280;62544;50.826;14.354;2023-02-19T06:05:21;98764.12;;;8.38;92.89
74181;BME280;62544;50.826;14.354;2023-02-19T06:09:37;98774.34;;;8.29;95.73
74181;BME280;62544;50.826;14.354;2023-02-19T06:13:53;98782.12;;;8.14;97.48
74181;BME280;62544;50.826;14.354;2023-02-19T06:18:08;98786.84;;;7.97;97.85
74181;BME280;62544;50.826;14.354;2023-02-19T06:22:25;98792.95;;;7.85;97.59
74181;BME280;62544;50.826;14.354;2023-02-19T06:26:41;98799.36;;;7.79;96.82
74181;BME280;62544;50.826;14.354;2023-02-19T06:30:57;98803.79;;;7.76;96.00
74181;BME280;62544;50.826;14.354;2023-02-19T06:35:13;98811.10;;;7.66;95.94
74181;BME280;62544;50.826;14.354;2023-02-19T06:39:29;98817.44;;;7.59;97.63
74181;BME280;62544;50.826;14.354;2023-02-19T06:43:45;98819.33;;;7.59;96.50
74181;BME280;62544;50.826;14.354;2023-02-19T06:48:01;98821.36;;;7.52;97.55
74181;BME280;62544;50.826;14.354;2023-02-19T06:52:17;98827.14;;;7.48;97.08
74181;BME280;62544;50.826;14.354;2023-02-19T06:56:34;98829.58;;;7.50;95.61
74181;BME280;62544;50.826;14.354;2023-02-19T07:00:48;98831.98;;;7.59;94.29
74181;BME280;62544;50.826;14.354;2023-02-19T07:05:05;98835.30;;;7.71;93.66
74181;BME280;62544;50.826;14.354;2023-02-19T07:09:21;98839.90;;;7.78;94.14
74181;BME280;62544;50.826;14.354;2023-02-19T07:13:37;98842.44;;;7.89;92.59
74181;BME280;62544;50.826;14.354;2023-02-19T07:17:53;98847.20;;;7.93;94.14
74181;BME280;62544;50.826;14.354;2023-02-19T07:22:09;98849.80;;;8.01;92.65
74181;BME280;62544;50.826;14.354;2023-02-19T07:26:25;98855.19;;;8.00;94.91
74181;BME280;62544;50.826;14.354;2023-02-19T07:30:40;98862.83;;;8.03;94.14
74181;BME280;62544;50.826;14.354;2023-02-19T07:34:57;98867.08;;;8.10;93.28
74181;BME280;62544;50.826;14.354;2023-02-19T07:39:13;98871.11;;;8.23;91.64
74181;BME280;62544;50.826;14.354;2023-02-19T07:43:31;98877.34;;;8.31;92.36
74181;BME280;62544;50.826;14.354;2023-02-19T07:47:45;98883.45;;;8.35;92.64
74181;BME280;62544;50.826;14.354;2023-02-19T07:52:01;98887.72;;;8.37;92.77
74181;BME280;62544;50.826;14.354;2023-02-19T07:56:18;98891.00;;;8.38;91.97
74181;BME280;62544;50.826;14.354;2023-02-19T08:00:32;98897.63;;;8.38;94.93
74181;BME280;62544;50.826;14.354;2023-02-19T08:04:49;98902.36;;;8.33;94.02
74181;BME280;62544;50.826;14.354;2023-02-19T08:09:05;98907.79;;;8.31;92.79
74181;BME280;62544;50.826;14.354;2023-02-19T08:13:21;98911.95;;;8.28;92.99
74181;BME280;62544;50.826;14.354;2023-02-19T08:17:36;98915.70;;;8.24;94.22
74181;BME280;62544;50.826;14.354;2023-02-19T08:21:53;98917.13;;;8.15;95.71
74181;BME280;62544;50.826;14.354;2023-02-19T08:26:09;98921.56;;;8.17;93.82
74181;BME280;62544;50.826;14.354;2023-02-19T08:30:25;98924.97;;;8.24;92.84
74181;BME280;62544;50.826;14.354;2023-02-19T08:34:41;98929.32;;;8.31;92.44
74181;BME280;62544;50.826;14.354;2023-02-19T08:38:56;98937.72;;;8.27;95.34
74181;BME280;62544;50.826;14.354;2023-02-19T08:43:13;98950.09;;;8.09;96.88
74181;BME280;62544;50.826;14.354;2023-02-19T08:47:29;98963.05;;;7.81;96.39
74181;BME280;62544;50.826;14.354;2023-02-19T08:51:45;98974.75;;;7.64;95.26
74181;BME280;62544;50.826;14.354;2023-02-19T08:56:11;98984.28;;;7.51;93.92
74181;BME280;62544;50.826;14.354;2023-02-19T09:00:17;98994.41;;;7.43;92.13
74181;BME280;62544;50.826;14.354;2023-02-19T09:04:32;99002.60;;;7.36;91.94
74181;BME280;62544;50.826;14.354;2023-02-19T09:08:48;99011.58;;;7.32;91.65
74181;BME280;62544;50.826;14.354;2023-02-19T09:13:04;99023.28;;;7.37;89.36
74181;BME280;62544;50.826;14.354;2023-02-19T09:17:21;99035.92;;;7.42;89.34
74181;BME280;62544;50.826;14.354;2023-02-19T09:21:37;99047.47;;;7.38;89.08
74181;BME280;62544;50.826;14.354;2023-02-19T09:25:56;99059.14;;;7.25;90.59
74181;BME280;62544;50.826;14.354;2023-02-19T09:30:09;99069.16;;;7.02;93.16
74181;BME280;62544;50.826;14.354;2023-02-19T09:34:25;99083.20;;;6.73;93.52
74181;BME280;62544;50.826;14.354;2023-02-19T09:38:40;99096.45;;;6.61;92.72
74181;BME280;62544;50.826;14.354;2023-02-19T09:42:56;99110.33;;;6.51;91.44
74181;BME280;62544;50.826;14.354;2023-02-19T09:47:19;99124.73;;;6.35;94.54
74181;BME280;62544;50.826;14.354;2023-02-19T09:51:28;99140.53;;;6.10;95.87
74181;BME280;62544;50.826;14.354;2023-02-19T09:55:44;99153.54;;;5.84;97.67
74181;BME280;62544;50.826;14.354;2023-02-19T10:00:18;99165.48;;;5.57;96.74
74181;BME280;62544;50.826;14.354;2023-02-19T10:04:16;99177.40;;;5.38;95.51
74181;BME280;62544;50.826;14.354;2023-02-19T10:08:33;99191.13;;;5.22;96.51
74181;BME280;62544;50.826;14.354;2023-02-19T10:12:49;99206.73;;;4.99;95.11
74181;BME280;62544;50.826;14.354;2023-02-19T10:17:05;99223.26;;;4.77;95.56
74181;BME280;62544;50.826;14.354;2023-02-19T10:21:21;99238.48;;;4.58;95.59
74181;BME280;62544;50.826;14.354;2023-02-19T10:25:38;99253.75;;;4.50;94.30
74181;BME280;62544;50.826;14.354;2023-02-19T10:29:52;99265.70;;;4.48;92.89
74181;BME280;62544;50.826;14.354;2023-02-19T10:34:16;99275.90;;;4.51;90.77
74181;BME280;62544;50.826;14.354;2023-02-19T10:38:44;99286.92;;;4.51;91.13
74181;BME280;62544;50.826;14.354;2023-02-19T10:42:43;99296.89;;;4.58;89.98
74181;BME280;62544;50.826;14.354;2023-02-19T10:46:57;99302.59;;;4.82;87.14
74181;BME280;62544;50.826;14.354;2023-02-19T10:51:13;99309.33;;;5.13;84.75
74181;BME280;62544;50.826;14.354;2023-02-19T10:55:32;99318.19;;;5.42;83.84
74181;BME280;62544;50.826;14.354;2023-02-19T10:59:51;99325.66;;;5.51;83.18
74181;BME280;62544;50.826;14.354;2023-02-19T11:04:14;99332.01;;;5.39;87.60
74181;BME280;62544;50.826;14.354;2023-02-19T11:08:19;99341.35;;;5.28;87.66
74181;BME280;62544;50.826;14.354;2023-02-19T11:12:33;99348.18;;;5.21;87.37
74181;BME280;62544;50.826;14.354;2023-02-19T11:16:52;99353.38;;;5.15;88.17
74181;BME280;62544;50.826;14.354;2023-02-19T11:21:05;99357.98;;;5.13;86.48
74181;BME280;62544;50.826;14.354;2023-02-19T11:25:21;99363.90;;;5.02;87.35
74181;BME280;62544;50.826;14.354;2023-02-19T11:29:37;99368.77;;;4.99;88.37
74181;BME280;62544;50.826;14.354;2023-02-19T11:34:01;99374.96;;;5.15;85.99
74181;BME280;62544;50.826;14.354;2023-02-19T11:38:09;99380.38;;;5.44;83.84
74181;BME280;62544;50.826;14.354;2023-02-19T11:46:54;99389.49;;;5.96;79.67
74181;BME280;62544;50.826;14.354;2023-02-19T11:51:04;99395.08;;;6.04;80.47
74181;BME280;62544;50.826;14.354;2023-02-19T11:55:16;99403.02;;;6.19;80.17
74181;BME280;62544;50.826;14.354;2023-02-19T11:59:33;99409.99;;;6.29;80.07
74181;BME280;62544;50.826;14.354;2023-02-19T12:08:15;99416.58;;;6.31;81.91
74181;BME280;62544;50.826;14.354;2023-02-19T12:12:20;99422.49;;;6.11;81.27
74181;BME280;62544;50.826;14.354;2023-02-19T12:25:19;99440.62;;;5.71;82.73
74181;BME280;62544;50.826;14.354;2023-02-19T12:42:22;99463.10;;;5.53;83.04
74181;BME280;62544;50.826;14.354;2023-02-19T12:46:32;99469.45;;;5.44;84.29
74181;BME280;62544;50.826;14.354;2023-02-19T12:50:41;99473.47;;;5.41;84.23
74181;BME280;62544;50.826;14.354;2023-02-19T12:55:12;99477.20;;;5.42;80.56
74181;BME280;62544;50.826;14.354;2023-02-19T12:59:14;99477.67;;;5.44;80.17
74181;BME280;62544;50.826;14.354;2023-02-19T13:03:39;99477.03;;;5.37;78.89
74181;BME280;62544;50.826;14.354;2023-02-19T13:07:58;99476.17;;;5.24;80.10
74181;BME280;62544;50.826;14.354;2023-02-19T13:12:10;99473.22;;;5.27;77.81
74181;BME280;62544;50.826;14.354;2023-02-19T13:16:18;99472.02;;;5.59;73.34
74181;BME280;62544;50.826;14.354;2023-02-19T13:20:34;99472.99;;;5.89;71.78
74181;BME280;62544;50.826;14.354;2023-02-19T13:24:49;99473.47;;;6.49;66.00
74181;BME280;62544;50.826;14.354;2023-02-19T13:33:24;99477.72;;;7.24;65.46
74181;BME280;62544;50.826;14.354;2023-02-19T13:37:37;99483.40;;;7.38;65.82
74181;BME280;62544;50.826;14.354;2023-02-19T13:41:54;99489.49;;;7.53;64.59
74181;BME280;62544;50.826;14.354;2023-02-19T13:46:09;99493.06;;;7.93;60.12
74181;BME280;62544;50.826;14.354;2023-02-19T13:50:31;99493.93;;;8.42;55.86
74181;BME280;62544;50.826;14.354;2023-02-19T13:54:41;99494.51;;;9.11;52.27
74181;BME280;62544;50.826;14.354;2023-02-19T14:07:33;99502.04;;;9.34;57.19
74181;BME280;62544;50.826;14.354;2023-02-19T14:16:02;99510.16;;;9.74;52.22
74181;BME280;62544;50.826;14.354;2023-02-19T14:24:33;99525.20;;;9.10;59.19
74181;BME280;62544;50.826;14.354;2023-02-19T14:28:49;99532.65;;;8.45;63.26
74181;BME280;62544;50.826;14.354;2023-02-19T14:33:08;99539.17;;;7.90;65.16
74181;BME280;62544;50.826;14.354;2023-02-19T14:37:21;99544.45;;;7.56;62.58
74181;BME280;62544;50.826;14.354;2023-02-19T14:41:37;99547.34;;;7.47;59.48
74181;BME280;62544;50.826;14.354;2023-02-19T14:46:00;99550.45;;;7.49;58.44
74181;BME280;62544;50.826;14.354;2023-02-19T14:50:13;99553.02;;;7.48;59.95
74181;BME280;62544;50.826;14.354;2023-02-19T14:58:41;99556.10;;;7.15;62.15
74181;BME280;62544;50.826;14.354;2023-02-19T15:02:57;99561.42;;;6.90;63.89
74181;BME280;62544;50.826;14.354;2023-02-19T15:07:14;99567.92;;;6.68;63.24
74181;BME280;62544;50.826;14.354;2023-02-19T15:11:29;99573.47;;;6.52;64.04
74181;BME280;62544;50.826;14.354;2023-02-19T15:15:45;99579.03;;;6.39;64.37
74181;BME280;62544;50.826;14.354;2023-02-19T15:20:07;99584.81;;;6.22;64.61
74181;BME280;62544;50.826;14.354;2023-02-19T15:24:17;99590.03;;;6.04;66.03
74181;BME280;62544;50.826;14.354;2023-02-19T15:28:33;99593.08;;;5.97;66.32
74181;BME280;62544;50.826;14.354;2023-02-19T15:32:56;99597.23;;;5.83;64.85
74181;BME280;62544;50.826;14.354;2023-02-19T15:37:06;99603.72;;;5.65;65.63
74181;BME280;62544;50.826;14.354;2023-02-19T15:41:21;99610.83;;;5.42;66.57
74181;BME280;62544;50.826;14.354;2023-02-19T15:45:40;99615.78;;;5.23;67.54
74181;BME280;62544;50.826;14.354;2023-02-19T15:50:03;99618.93;;;5.04;69.60
74181;BME280;62544;50.826;14.354;2023-02-19T15:54:14;99624.17;;;4.85;69.37
74181;BME280;62544;50.826;14.354;2023-02-19T15:58:29;99629.96;;;4.76;69.16
74181;BME280;62544;50.826;14.354;2023-02-19T16:02:41;99635.83;;;4.65;70.22
74181;BME280;62544;50.826;14.354;2023-02-19T16:07:01;99641.52;;;4.55;70.54
74181;BME280;62544;50.826;14.354;2023-02-19T16:15:30;99654.78;;;4.50;71.19
74181;BME280;62544;50.826;14.354;2023-02-19T16:19:52;99659.09;;;4.50;71.24
74181;BME280;62544;50.826;14.354;2023-02-19T16:24:05;99663.05;;;4.54;71.16
74181;BME280;62544;50.826;14.354;2023-02-19T16:28:23;99666.61;;;4.57;72.13
74181;BME280;62544;50.826;14.354;2023-02-19T16:32:33;99670.84;;;4.60;72.60
74181;BME280;62544;50.826;14.354;2023-02-19T16:36:49;99673.89;;;4.60;73.79
74181;BME280;62544;50.826;14.354;2023-02-19T16:41:09;99677.00;;;4.58;75.06
74181;BME280;62544;50.826;14.354;2023-02-19T16:45:21;99681.27;;;4.36;80.77
74181;BME280;62544;50.826;14.354;2023-02-19T16:49:37;99686.13;;;4.18;78.66
74181;BME280;62544;50.826;14.354;2023-02-19T16:53:53;99692.60;;;4.00;78.91
74181;BME280;62544;50.826;14.354;2023-02-19T16:58:09;99700.41;;;3.85;79.47
74181;BME280;62544;50.826;14.354;2023-02-19T17:02:25;99708.51;;;3.67;81.50
74181;BME280;62544;50.826;14.354;2023-02-19T17:06:41;99716.61;;;3.50;81.87
74181;BME280;62544;50.826;14.354;2023-02-19T17:10:57;99724.88;;;3.23;83.83
74181;BME280;62544;50.826;14.354;2023-02-19T17:15:13;99733.42;;;3.00;85.10
74181;BME280;62544;50.826;14.354;2023-02-19T17:19:29;99741.08;;;2.81;85.14
74181;BME280;62544;50.826;14.354;2023-02-19T17:23:45;99749.70;;;2.61;87.52
74181;BME280;62544;50.826;14.354;2023-02-19T17:28:01;99758.39;;;2.50;86.05
74181;BME280;62544;50.826;14.354;2023-02-19T17:32:17;99765.44;;;2.45;84.57
74181;BME280;62544;50.826;14.354;2023-02-19T17:36:33;99771.55;;;2.39;85.41
74181;BME280;62544;50.826;14.354;2023-02-19T17:40:49;99778.52;;;2.35;84.07
74181;BME280;62544;50.826;14.354;2023-02-19T17:45:05;99785.46;;;2.23;85.62
74181;BME280;62544;50.826;14.354;2023-02-19T17:49:21;99793.09;;;1.98;89.53
74181;BME280;62544;50.826;14.354;2023-02-19T17:53:37;99801.03;;;1.81;87.64
74181;BME280;62544;50.826;14.354;2023-02-19T17:57:53;99806.36;;;1.73;86.10
74181;BME280;62544;50.826;14.354;2023-02-19T18:02:09;99814.48;;;1.66;86.04
74181;BME280;62544;50.826;14.354;2023-02-19T18:06:25;99822.41;;;1.48;91.58
74181;BME280;62544;50.826;14.354;2023-02-19T18:10:41;99831.36;;;1.38;88.12
74181;BME280;62544;50.826;14.354;2023-02-19T18:14:57;99838.28;;;1.32;88.49
74181;BME280;62544;50.826;14.354;2023-02-19T18:19:13;99844.84;;;1.23;88.17
74181;BME280;62544;50.826;14.354;2023-02-19T18:23:29;99849.13;;;1.17;89.01
74181;BME280;62544;50.826;14.354;2023-02-19T18:27:45;99853.28;;;1.13;89.26
74181;BME280;62544;50.826;14.354;2023-02-19T18:32:01;99858.12;;;1.14;88.11
74181;BME280;62544;50.826;14.354;2023-02-19T18:36:17;99862.11;;;1.12;89.39
74181;BME280;62544;50.826;14.354;2023-02-19T18:40:33;99866.99;;;1.18;87.74
74181;BME280;62544;50.826;14.354;2023-02-19T18:44:49;99871.56;;;1.27;87.48
74181;BME280;62544;50.826;14.354;2023-02-19T18:49:05;99876.56;;;1.35;87.26
74181;BME280;62544;50.826;14.354;2023-02-19T18:53:21;99880.63;;;1.37;87.92
74181;BME280;62544;50.826;14.354;2023-02-19T18:57:37;99883.54;;;1.39;88.32
74181;BME280;62544;50.826;14.354;2023-02-19T19:01:53;99885.36;;;1.40;88.06
74181;BME280;62544;50.826;14.354;2023-02-19T19:06:09;99887.78;;;1.42;87.94
74181;BME280;62544;50.826;14.354;2023-02-19T19:10:25;99889.86;;;1.47;87.12
74181;BME280;62544;50.826;14.354;2023-02-19T19:14:41;99888.69;;;1.49;86.96
74181;BME280;62544;50.826;14.354;2023-02-19T19:18:57;99888.79;;;1.40;89.14
74181;BME280;62544;50.826;14.354;2023-02-19T19:23:13;99887.95;;;1.31;87.76
74181;BME280;62544;50.826;14.354;2023-02-19T19:27:29;99889.33;;;1.24;87.47
74181;BME280;62544;50.826;14.354;2023-02-19T19:31:45;99892.05;;;1.12;90.12
74181;BME280;62544;50.826;14.354;2023-02-19T19:36:01;99896.29;;;1.05;88.46
74181;BME280;62544;50.826;14.354;2023-02-19T19:40:17;99900.17;;;1.00;88.88
74181;BME280;62544;50.826;14.354;2023-02-19T19:44:33;99903.11;;;0.90;90.24
74181;BME280;62544;50.826;14.354;2023-02-19T19:48:49;99905.63;;;0.83;89.31
74181;BME280;62544;50.826;14.354;2023-02-19T19:53:05;99907.53;;;0.78;89.36
74181;BME280;62544;50.826;14.354;2023-02-19T19:57:21;99908.45;;;0.72;89.49
74181;BME280;62544;50.826;14.354;2023-02-19T20:01:37;99908.45;;;0.63;92.30
74181;BME280;62544;50.826;14.354;2023-02-19T20:05:53;99909.50;;;0.54;91.78
74181;BME280;62544;50.826;14.354;2023-02-19T20:10:09;99910.82;;;0.54;89.81
74181;BME280;62544;50.826;14.354;2023-02-19T20:14:25;99911.92;;;0.55;89.17
74181;BME280;62544;50.826;14.354;2023-02-19T20:18:41;99915.37;;;0.56;87.66
74181;BME280;62544;50.826;14.354;2023-02-19T20:22:57;99919.03;;;0.55;87.78
74181;BME280;62544;50.826;14.354;2023-02-19T20:27:13;99923.74;;;0.51;87.43
74181;BME280;62544;50.826;14.354;2023-02-19T20:31:29;99926.78;;;0.46;86.47
74181;BME280;62544;50.826;14.354;2023-02-19T20:35:45;99929.36;;;0.36;87.41
74181;BME280;62544;50.826;14.354;2023-02-19T20:40:01;99931.37;;;0.27;87.86
74181;BME280;62544;50.826;14.354;2023-02-19T20:44:17;99933.89;;;0.15;89.00
74181;BME280;62544;50.826;14.354;2023-02-19T20:48:33;99935.63;;;0.01;89.65
74181;BME280;62544;50.826;14.354;2023-02-19T20:52:49;99936.39;;;-0.06;87.94
74181;BME280;62544;50.826;14.354;2023-02-19T20:57:05;99939.51;;;-0.13;87.36
74181;BME280;62544;50.826;14.354;2023-02-19T21:01:24;99941.09;;;-0.20;87.38
74181;BME280;62544;50.826;14.354;2023-02-19T21:05:37;99942.60;;;-0.30;87.71
74181;BME280;62544;50.826;14.354;2023-02-19T21:09:53;99946.59;;;-0.44;89.38
74181;BME280;62544;50.826;14.354;2023-02-19T21:14:09;99949.77;;;-0.54;89.25
74181;BME280;62544;50.826;14.354;2023-02-19T21:18:25;99954.35;;;-0.59;87.90
74181;BME280;62544;50.826;14.354;2023-02-19T21:22:41;99959.91;;;-0.63;87.45
74181;BME280;62544;50.826;14.354;2023-02-19T21:26:57;99964.06;;;-0.69;88.96
74181;BME280;62544;50.826;14.354;2023-02-19T21:31:13;99968.25;;;-0.72;88.67
74181;BME280;62544;50.826;14.354;2023-02-19T21:35:29;99973.72;;;-0.72;88.75
74181;BME280;62544;50.826;14.354;2023-02-19T21:39:45;99978.50;;;-0.71;88.44
74181;BME280;62544;50.826;14.354;2023-02-19T21:44:01;99984.69;;;-0.69;88.67
74181;BME280;62544;50.826;14.354;2023-02-19T21:48:17;99991.22;;;-0.64;88.26
74181;BME280;62544;50.826;14.354;2023-02-19T21:52:33;99995.48;;;-0.63;89.36
74181;BME280;62544;50.826;14.354;2023-02-19T21:56:49;99999.55;;;-0.59;89.48
74181;BME280;62544;50.826;14.354;2023-02-19T22:01:05;100001.45;;;-0.52;89.85
74181;BME280;62544;50.826;14.354;2023-02-19T22:05:22;100004.14;;;-0.45;89.54
74181;BME280;62544;50.826;14.354;2023-02-19T22:09:37;100006.34;;;-0.38;89.34
74181;BME280;62544;50.826;14.354;2023-02-19T22:13:53;100008.12;;;-0.34;89.40
74181;BME280;62544;50.826;14.354;2023-02-19T22:18:09;100009.75;;;-0.29;88.43
74181;BME280;62544;50.826;14.354;2023-02-19T22:22:25;100010.10;;;-0.25;88.14
74181;BME280;62544;50.826;14.354;2023-02-19T22:26:41;100009.34;;;-0.26;88.21
74181;BME280;62544;50.826;14.354;2023-02-19T22:30:57;100006.49;;;-0.28;88.38
74181;BME280;62544;50.826;14.354;2023-02-19T22:35:13;100005.53;;;-0.30;88.68
74181;BME280;62544;50.826;14.354;2023-02-19T22:39:29;100004.21;;;-0.31;88.17
74181;BME280;62544;50.826;14.354;2023-02-19T22:43:45;99999.95;;;-0.34;88.24
74181;BME280;62544;50.826;14.354;2023-02-19T22:48:01;99997.13;;;-0.38;89.23
74181;BME280;62544;50.826;14.354;2023-02-19T22:52:17;99993.03;;;-0.41;88.77
74181;BME280;62544;50.826;14.354;2023-02-19T22:56:33;99990.50;;;-0.43;88.55
74181;BME280;62544;50.826;14.354;2023-02-19T23:00:49;99987.81;;;-0.43;88.32
74181;BME280;62544;50.826;14.354;2023-02-19T23:05:05;99985.22;;;-0.42;88.86
74181;BME280;62544;50.826;14.354;2023-02-19T23:09:22;99983.83;;;-0.40;88.75
74181;BME280;62544;50.826;14.354;2023-02-19T23:13:37;99981.58;;;-0.37;88.75
74181;BME280;62544;50.826;14.354;2023-02-19T23:17:53;99977.09;;;-0.31;88.43
74181;BME280;62544;50.826;14.354;2023-02-19T23:22:09;99972.20;;;-0.26;88.07
74181;BME280;62544;50.826;14.354;2023-02-19T23:26:25;99967.14;;;-0.26;89.20
74181;BME280;62544;50.826;14.354;2023-02-19T23:30:41;99962.50;;;-0.22;89.10
74181;BME280;62544;50.826;14.354;2023-02-19T23:34:57;99958.64;;;-0.18;89.49
74181;BME280;62544;50.826;14.354;2023-02-19T23:39:14;99953.70;;;-0.12;89.20
74181;BME280;62544;50.826;14.354;2023-02-19T23:43:29;99949.18;;;-0.05;88.99
74181;BME280;62544;50.826;14.354;2023-02-19T23:47:45;99942.95;;;0.03;89.05
74181;BME280;62544;50.826;14.354;2023-02-19T23:52:01;99936.97;;;0.10;88.92
74181;BME280;62544;50.826;14.354;2023-02-19T23:56:23;99933.29;;;0.17;89.20
